createdAt,value
2023-03-28T00:01:13.935Z,101923.63
2023-03-28T00:03:42.706Z,101954.34
2023-03-28T00:06:12.616Z,101953.56
2023-03-28T00:08:42.031Z,101950.91
2023-03-28T00:11:12.887Z,101950.72
2023-03-28T00:13:41.342Z,101952.09
2023-03-28T00:16:13.774Z,101948.31
2023-03-28T00:18:43.297Z,101934.44
2023-03-28T00:21:23.602Z,101938.09
2023-03-28T00:23:53.944Z,101931.06
2023-03-28T00:26:24.951Z,101919.00
2023-03-28T00:28:54.849Z,101931.53
2023-03-28T00:31:27.260Z,101932.22
2023-03-28T00:33:56.394Z,101881.84
2023-03-28T00:36:26.691Z,101933.16
2023-03-28T00:38:55.339Z,101927.00
2023-03-28T00:41:26.780Z,101926.81
2023-03-28T00:43:56.726Z,101924.06
2023-03-28T00:46:32.534Z,101923.88
2023-03-28T00:49:06.821Z,101922.16
2023-03-28T00:51:39.014Z,101919.34
2023-03-28T00:54:12.116Z,101917.44
2023-03-28T00:56:44.473Z,101919.91
2023-03-28T00:59:16.554Z,101912.72
2023-03-28T01:01:49.153Z,101914.31
2023-03-28T01:04:22.369Z,101911.75
2023-03-28T01:06:55.850Z,101911.00
2023-03-28T01:09:25.878Z,101902.34
2023-03-28T01:11:57.020Z,101909.47
2023-03-28T01:14:29.184Z,101905.69
2023-03-28T01:17:01.086Z,101902.94
2023-03-28T01:19:45.803Z,101903.19
2023-03-28T01:22:56.752Z,101906.81
2023-03-28T01:26:20.257Z,101908.97
2023-03-28T01:29:32.909Z,101908.56
2023-03-28T01:32:50.698Z,101908.78
2023-03-28T01:36:03.311Z,101908.03
2023-03-28T01:38:40.877Z,101907.06
2023-03-28T01:41:21.634Z,101901.56
2023-03-28T01:43:57.618Z,101905.28
2023-03-28T01:46:32.160Z,101892.25
2023-03-28T01:49:08.275Z,101900.81
2023-03-28T01:51:52.419Z,101896.34
2023-03-28T01:54:31.297Z,101883.34
2023-03-28T01:57:10.598Z,101887.03
2023-03-28T01:59:43.708Z,101885.69
2023-03-28T02:02:43.446Z,101884.41
2023-03-28T02:05:28.466Z,101837.47
2023-03-28T02:07:59.669Z,101875.97
2023-03-28T02:10:43.345Z,101737.00
2023-03-28T02:13:34.959Z,101879.75
2023-03-28T02:16:16.935Z,101873.16
2023-03-28T02:19:02.721Z,101872.94
2023-03-28T02:22:08.467Z,101878.53
2023-03-28T02:25:12.408Z,101871.53
2023-03-28T02:28:00.405Z,101871.44
2023-03-28T02:30:38.757Z,101829.16
2023-03-28T02:33:10.221Z,101865.56
2023-03-28T02:35:48.647Z,101871.53
2023-03-28T02:38:25.733Z,101864.34
2023-03-28T02:41:00.295Z,101868.78
2023-03-28T02:43:46.667Z,101859.88
2023-03-28T02:46:29.504Z,101872.41
2023-03-28T02:49:19.089Z,101866.22
2023-03-28T02:51:53.049Z,101868.03
2023-03-28T02:54:30.112Z,101870.69
2023-03-28T02:57:34.938Z,101872.09
2023-03-28T03:00:11.653Z,101854.16
2023-03-28T03:02:41.357Z,101868.78
2023-03-28T03:05:10.151Z,101872.38
2023-03-28T03:07:39.203Z,101865.81
2023-03-28T03:10:09.364Z,101869.50
2023-03-28T03:12:39.580Z,101861.69
2023-03-28T03:15:11.922Z,101833.94
2023-03-28T03:17:57.278Z,101857.22
2023-03-28T03:20:32.989Z,101866.22
2023-03-28T03:23:01.987Z,101863.91
2023-03-28T03:25:32.522Z,101846.63
2023-03-28T03:28:27.262Z,101841.09
2023-03-28T03:30:57.604Z,101846.56
2023-03-28T03:33:25.986Z,101841.59
2023-03-28T03:36:00.412Z,101833.22
2023-03-28T03:38:28.998Z,101832.53
2023-03-28T03:40:57.507Z,101831.97
2023-03-28T03:43:27.881Z,101827.84
2023-03-28T03:45:58.059Z,101822.91
2023-03-28T03:48:28.456Z,101825.53
2023-03-28T03:51:01.839Z,101815.78
2023-03-28T03:53:30.323Z,101814.50
2023-03-28T03:56:10.197Z,101788.16
2023-03-28T03:58:58.861Z,101824.50
2023-03-28T04:01:40.060Z,101825.59
2023-03-28T04:04:28.361Z,101826.09
2023-03-28T04:07:22.850Z,101823.06
2023-03-28T04:09:54.008Z,101817.50
2023-03-28T04:12:22.662Z,101826.91
2023-03-28T04:14:52.887Z,101827.59
2023-03-28T04:17:35.322Z,101833.16
2023-03-28T04:20:14.319Z,101837.78
2023-03-28T04:23:01.698Z,101835.06
2023-03-28T04:25:32.331Z,101836.69
2023-03-28T04:28:11.691Z,101841.13
2023-03-28T04:30:49.551Z,101845.22
2023-03-28T04:33:37.760Z,101853.88
2023-03-28T04:36:08.320Z,101845.91
2023-03-28T04:38:37.383Z,101846.78
2023-03-28T04:41:26.306Z,101855.25
2023-03-28T04:44:03.883Z,101846.03
2023-03-28T04:46:37.621Z,101855.78
2023-03-28T04:49:14.262Z,101848.75
2023-03-28T04:51:42.750Z,101842.22
2023-03-28T04:54:11.230Z,101848.81
2023-03-28T04:57:02.699Z,101853.69
2023-03-28T04:59:39.581Z,101853.28
2023-03-28T05:02:08.058Z,101840.78
2023-03-28T05:04:46.027Z,101854.56
2023-03-28T05:07:15.788Z,101854.56
2023-03-28T05:09:44.643Z,101859.69
2023-03-28T05:12:14.321Z,101866.19
2023-03-28T05:15:21.866Z,101869.34
2023-03-28T05:18:18.023Z,101878.38
2023-03-28T05:20:48.241Z,101875.00
2023-03-28T05:23:16.554Z,101870.72
2023-03-28T05:25:51.987Z,101869.16
2023-03-28T05:28:20.885Z,101866.00
2023-03-28T05:30:52.598Z,101865.28
2023-03-28T05:33:21.146Z,101862.81
2023-03-28T05:35:52.029Z,101871.78
2023-03-28T05:38:21.925Z,101870.34
2023-03-28T05:40:54.505Z,101876.81
2023-03-28T05:43:22.942Z,101874.25
2023-03-28T05:45:51.398Z,101880.56
2023-03-28T05:48:23.076Z,101885.69
2023-03-28T05:50:52.905Z,101880.41
2023-03-28T05:53:22.829Z,101883.63
2023-03-28T05:55:51.927Z,101883.47
2023-03-28T05:58:20.388Z,101880.53
2023-03-28T06:00:48.872Z,101886.69
2023-03-28T06:03:17.636Z,101887.47
2023-03-28T06:05:48.147Z,101892.59
2023-03-28T06:08:23.774Z,101890.47
2023-03-28T06:10:52.404Z,101901.69
2023-03-28T06:13:26.243Z,101901.31
2023-03-28T06:15:55.145Z,101901.66
2023-03-28T06:18:31.419Z,101902.38
2023-03-28T06:20:59.927Z,101914.06
2023-03-28T06:23:29.907Z,101918.03
2023-03-28T06:25:58.547Z,101919.56
2023-03-28T06:28:33.295Z,101916.84
2023-03-28T06:31:19.915Z,101922.75
2023-03-28T06:33:49.183Z,101921.88
2023-03-28T06:36:20.779Z,101918.28
2023-03-28T06:38:52.436Z,101920.09
2023-03-28T06:41:22.911Z,101923.69
2023-03-28T06:43:51.565Z,101910.53
2023-03-28T06:46:52.186Z,101912.97
2023-03-28T06:49:21.424Z,101915.50
2023-03-28T06:52:08.270Z,101911.97
2023-03-28T06:54:38.955Z,101920.59
2023-03-28T06:57:07.282Z,101913.94
2023-03-28T06:59:38.355Z,101911.06
2023-03-28T07:02:12.101Z,101910.66
2023-03-28T07:04:41.483Z,101918.13
2023-03-28T07:07:10.085Z,101909.56
2023-03-28T07:09:40.172Z,101918.13
2023-03-28T07:12:13.966Z,101920.25
2023-03-28T07:14:44.699Z,101911.72
2023-03-28T07:17:13.281Z,101914.06
2023-03-28T07:19:41.750Z,101920.66
2023-03-28T07:22:10.536Z,101914.72
2023-03-28T07:24:40.298Z,101925.81
2023-03-28T07:27:16.210Z,101933.28
2023-03-28T07:29:46.966Z,101928.34
2023-03-28T07:32:16.239Z,101926.31
2023-03-28T07:34:46.933Z,101927.91
2023-03-28T07:37:21.223Z,101937.56
2023-03-28T07:39:58.527Z,101938.94
2023-03-28T07:42:28.778Z,101916.69
2023-03-28T07:44:57.107Z,101958.59
2023-03-28T07:47:25.469Z,101968.09
2023-03-28T07:49:54.468Z,101970.09
2023-03-28T07:52:23.628Z,101967.81
2023-03-28T07:54:52.129Z,101971.03
2023-03-28T07:57:21.977Z,101962.66
2023-03-28T07:59:59.390Z,101962.72
2023-03-28T08:02:29.405Z,101956.91
2023-03-28T08:04:58.001Z,101964.88
2023-03-28T08:07:28.347Z,101966.25
2023-03-28T08:09:58.865Z,101968.22
2023-03-28T08:12:31.648Z,101964.84
2023-03-28T08:15:00.336Z,101965.47
2023-03-28T08:17:29.790Z,101960.06
2023-03-28T08:19:58.988Z,101968.00
2023-03-28T08:22:30.769Z,101972.50
2023-03-28T08:25:12.403Z,101978.75
2023-03-28T08:27:42.449Z,101971.72
2023-03-28T08:30:14.551Z,101976.56
2023-03-28T08:32:54.351Z,101984.75
2023-03-28T08:35:22.900Z,101987.28
2023-03-28T08:37:56.112Z,101993.97
2023-03-28T08:40:27.274Z,101997.69
2023-03-28T08:43:31.411Z,102000.44
2023-03-28T08:46:01.940Z,101989.44
2023-03-28T08:48:39.163Z,101940.53
2023-03-28T08:51:23.655Z,101995.28
2023-03-28T08:54:03.789Z,102000.25
2023-03-28T08:56:36.409Z,101996.34
2023-03-28T08:59:08.774Z,102007.53
2023-03-28T09:01:37.385Z,102012.22
2023-03-28T09:04:06.387Z,102004.44
2023-03-28T09:06:40.150Z,102006.97
2023-03-28T09:09:29.172Z,102009.94
2023-03-28T09:12:27.762Z,102004.25
2023-03-28T09:15:14.944Z,102006.09
2023-03-28T09:17:53.625Z,102004.38
2023-03-28T09:20:29.975Z,102003.34
2023-03-28T09:23:58.810Z,102002.34
2023-03-28T09:26:58.675Z,102009.28
2023-03-28T09:29:28.061Z,102001.31
2023-03-28T09:32:02.413Z,102002.69
2023-03-28T09:34:39.526Z,102003.53
2023-03-28T09:37:19.035Z,101999.00
2023-03-28T09:39:52.509Z,101990.63
2023-03-28T09:42:32.685Z,101991.22
2023-03-28T09:45:32.569Z,101996.47
2023-03-28T09:48:03.722Z,101992.28
2023-03-28T09:50:37.812Z,101994.53
2023-03-28T09:53:06.973Z,101991.19
2023-03-28T09:55:36.246Z,101992.41
2023-03-28T09:58:09.809Z,101986.19
2023-03-28T10:01:05.554Z,101990.66
2023-03-28T10:04:17.527Z,101991.03
2023-03-28T10:07:28.583Z,101990.78
2023-03-28T10:10:12.372Z,101993.25
2023-03-28T10:12:43.705Z,101989.88
2023-03-28T10:15:32.361Z,101988.06
2023-03-28T10:18:41.719Z,101998.00
2023-03-28T10:21:21.102Z,101988.91
2023-03-28T10:24:05.486Z,102010.50
2023-03-28T10:26:34.439Z,102009.09
2023-03-28T10:29:08.437Z,102018.38
2023-03-28T10:31:40.294Z,102011.88
2023-03-28T10:34:28.944Z,102015.53
2023-03-28T10:37:24.164Z,101979.94
2023-03-28T10:40:23.917Z,102011.22
2023-03-28T10:43:37.528Z,101995.19
2023-03-28T10:46:32.616Z,102006.91
2023-03-28T10:49:22.790Z,102003.13
2023-03-28T10:52:20.853Z,102007.25
2023-03-28T10:55:04.968Z,102002.50
2023-03-28T10:57:55.445Z,102000.88
2023-03-28T11:00:28.561Z,101995.22
2023-03-28T11:03:19.937Z,101993.22
2023-03-28T11:06:08.045Z,101986.59
2023-03-28T11:08:51.954Z,101985.34
2023-03-28T11:11:40.703Z,101971.59
2023-03-28T11:14:19.614Z,101962.19
2023-03-28T11:16:59.101Z,101955.56
2023-03-28T11:20:27.166Z,101948.41
2023-03-28T11:23:38.058Z,101949.88
2023-03-28T11:26:41.920Z,101951.72
2023-03-28T11:29:50.195Z,101940.63
2023-03-28T11:32:26.625Z,101936.81
2023-03-28T11:35:05.763Z,101933.78
2023-03-28T11:37:41.294Z,101922.13
2023-03-28T11:40:21.280Z,101929.00
2023-03-28T11:43:04.614Z,101936.47
2023-03-28T11:45:51.014Z,101939.88
2023-03-28T11:48:28.499Z,101940.97
2023-03-28T11:51:05.105Z,101936.25
2023-03-28T11:53:49.169Z,101923.09
2023-03-28T11:56:29.807Z,101930.38
2023-03-28T11:59:14.588Z,101929.25
2023-03-28T12:01:48.272Z,101934.81
2023-03-28T12:04:22.435Z,101928.38
2023-03-28T12:07:07.557Z,101925.53
2023-03-28T12:09:52.443Z,101923.00
2023-03-28T12:12:26.259Z,101926.69
2023-03-28T12:15:01.708Z,101920.34
2023-03-28T12:17:59.342Z,101914.72
2023-03-28T12:20:33.426Z,101915.78
2023-03-28T12:23:12.760Z,101911.22
2023-03-28T12:26:22.664Z,101917.69
2023-03-28T12:28:54.533Z,101919.56
2023-03-28T12:31:30.749Z,101913.72
2023-03-28T12:34:15.394Z,101911.03
2023-03-28T12:37:21.899Z,101917.44
2023-03-28T12:39:55.993Z,101925.59
2023-03-28T12:42:30.676Z,101919.06
2023-03-28T12:45:01.708Z,101900.78
2023-03-28T12:47:36.705Z,101919.44
2023-03-28T12:50:09.096Z,101918.06
2023-03-28T12:52:42.374Z,101917.00
2023-03-28T12:55:48.735Z,101919.19
2023-03-28T12:58:27.371Z,101912.78
2023-03-28T13:01:29.941Z,101905.75
2023-03-28T13:04:31.981Z,101877.00
2023-03-28T13:07:26.049Z,101896.31
2023-03-28T13:10:04.651Z,101895.00
2023-03-28T13:12:49.618Z,101891.28
2023-03-28T13:15:31.058Z,101875.38
2023-03-28T13:18:31.890Z,101897.38
2023-03-28T13:21:04.588Z,101876.06
2023-03-28T13:23:36.871Z,101885.22
2023-03-28T13:26:07.171Z,101879.47
2023-03-28T13:28:42.411Z,101884.53
2023-03-28T13:31:14.386Z,101872.03
2023-03-28T13:33:48.431Z,101872.34
2023-03-28T13:36:27.065Z,101863.56
2023-03-28T13:39:20.109Z,101867.63
2023-03-28T13:42:01.776Z,101864.75
2023-03-28T13:44:40.411Z,101865.09
2023-03-28T13:47:16.520Z,101857.50
2023-03-28T13:49:49.290Z,101846.97
2023-03-28T13:52:21.671Z,101843.47
2023-03-28T13:54:54.454Z,101845.63
2023-03-28T13:57:26.138Z,101844.59
2023-03-28T14:00:00.140Z,101841.22
2023-03-28T14:02:38.717Z,101833.97
2023-03-28T14:05:19.578Z,101834.81
2023-03-28T14:07:50.420Z,101831.25
2023-03-28T14:10:29.050Z,101803.34
2023-03-28T14:13:00.270Z,101820.94
2023-03-28T14:15:33.773Z,101813.34
2023-03-28T14:18:04.040Z,101813.00
2023-03-28T14:20:34.381Z,101814.16
2023-03-28T14:23:04.622Z,101806.69
2023-03-28T14:25:34.350Z,101810.63
2023-03-28T14:28:08.845Z,101802.31
2023-03-28T14:30:42.487Z,101804.16
2023-03-28T14:33:20.605Z,101813.13
2023-03-28T14:35:58.501Z,101811.59
2023-03-28T14:38:35.329Z,101730.28
2023-03-28T14:41:15.391Z,101806.34
2023-03-28T14:43:43.965Z,101806.34
2023-03-28T14:46:12.610Z,101813.50
2023-03-28T14:48:43.446Z,101811.63
2023-03-28T14:51:14.893Z,101819.22
2023-03-28T14:53:47.659Z,101817.56
2023-03-28T14:56:23.709Z,101820.94
2023-03-28T14:58:54.155Z,101815.53
2023-03-28T15:01:24.029Z,101836.16
2023-03-28T15:03:58.007Z,101831.09
2023-03-28T15:06:29.502Z,101819.59
2023-03-28T15:09:04.296Z,101816.03
2023-03-28T15:11:36.612Z,101815.53
2023-03-28T15:14:08.415Z,101804.84
2023-03-28T15:16:39.737Z,101779.31
2023-03-28T15:19:10.606Z,101809.09
2023-03-28T15:21:42.003Z,101820.59
2023-03-28T15:24:16.703Z,101818.41
2023-03-28T15:26:47.967Z,101813.34
2023-03-28T15:29:18.636Z,101811.13
2023-03-28T15:31:48.068Z,101807.06
2023-03-28T15:34:22.403Z,101806.38
2023-03-28T15:36:52.821Z,101805.03
2023-03-28T15:39:27.351Z,101800.13
2023-03-28T15:42:00.640Z,101795.59
2023-03-28T15:44:31.969Z,101799.13
2023-03-28T15:47:02.958Z,101795.25
2023-03-28T15:49:36.869Z,101789.16
2023-03-28T15:52:09.407Z,101829.25
2023-03-28T15:54:44.513Z,101805.38
2023-03-28T15:57:15.830Z,101811.81
2023-03-28T15:59:48.657Z,101799.81
2023-03-28T16:02:32.723Z,101800.97
2023-03-28T16:05:03.040Z,101799.47
2023-03-28T16:07:36.606Z,101798.28
2023-03-28T16:10:07.556Z,101799.63
2023-03-28T16:12:50.649Z,101792.50
2023-03-28T16:15:32.887Z,101802.16
2023-03-28T16:18:12.608Z,101796.06
2023-03-28T16:20:50.347Z,101791.63
2023-03-28T16:23:18.671Z,101793.13
2023-03-28T16:25:50.651Z,101787.69
2023-03-28T16:28:20.133Z,101792.22
2023-03-28T16:30:48.428Z,101789.47
2023-03-28T16:33:17.812Z,101799.59
2023-03-28T16:35:46.246Z,101798.69
2023-03-28T16:38:14.712Z,101801.22
2023-03-28T16:40:43.103Z,101808.44
2023-03-28T16:43:15.548Z,101821.53
2023-03-28T16:45:47.115Z,101818.84
2023-03-28T16:48:15.878Z,101814.75
2023-03-28T16:50:50.688Z,101813.38
2023-03-28T16:53:19.174Z,101811.94
2023-03-28T16:55:47.620Z,101822.06
2023-03-28T16:58:17.484Z,101817.28
2023-03-28T17:00:48.116Z,101817.50
2023-03-28T17:03:17.205Z,101810.91
2023-03-28T17:05:45.726Z,101822.97
2023-03-28T17:08:14.270Z,101822.44
2023-03-28T17:10:43.864Z,101824.50
2023-03-28T17:13:12.246Z,101826.84
2023-03-28T17:15:42.501Z,101834.22
2023-03-28T17:18:11.432Z,101837.34
2023-03-28T17:20:39.809Z,101839.47
2023-03-28T17:23:08.218Z,101841.63
2023-03-28T17:25:48.119Z,101844.78
2023-03-28T17:28:23.222Z,101846.53
2023-03-28T17:30:53.397Z,101852.22
2023-03-28T17:33:22.603Z,101852.53
2023-03-28T17:35:51.295Z,101856.66
2023-03-28T17:38:19.700Z,101859.38
2023-03-28T17:40:48.248Z,101855.28
2023-03-28T17:43:17.098Z,101834.84
2023-03-28T17:45:45.509Z,101851.41
2023-03-28T17:48:15.268Z,101852.53
2023-03-28T17:50:43.684Z,101859.66
2023-03-28T17:53:12.085Z,101857.56
2023-03-28T17:55:40.859Z,101859.00
2023-03-28T17:58:09.350Z,101865.94
2023-03-28T18:00:38.192Z,101861.84
2023-03-28T18:03:06.653Z,101864.44
2023-03-28T18:06:00.453Z,101864.25
2023-03-28T18:08:29.565Z,101862.41
2023-03-28T18:11:02.159Z,101858.47
2023-03-28T18:13:30.532Z,101872.91
2023-03-28T18:15:59.015Z,101869.06
2023-03-28T18:18:27.851Z,101874.59
2023-03-28T18:20:57.934Z,101872.59
2023-03-28T18:23:27.014Z,101871.16
2023-03-28T18:25:55.374Z,101877.59
2023-03-28T18:28:24.632Z,101870.91
2023-03-28T18:30:53.732Z,101866.22
2023-03-28T18:33:22.738Z,101866.59
2023-03-28T18:35:51.370Z,101873.28
2023-03-28T18:38:21.176Z,101860.25
2023-03-28T18:40:53.588Z,101882.81
2023-03-28T18:43:23.947Z,101876.50
2023-03-28T18:45:56.343Z,101876.88
2023-03-28T18:48:24.751Z,101870.94
2023-03-28T18:50:53.335Z,101865.22
2023-03-28T18:53:23.708Z,101864.00
2023-03-28T18:55:52.688Z,101878.66
2023-03-28T18:58:23.481Z,101874.44
2023-03-28T19:00:59.327Z,101874.84
2023-03-28T19:03:30.275Z,101878.78
2023-03-28T19:06:00.539Z,101881.38
2023-03-28T19:08:31.248Z,101888.78
2023-03-28T19:11:01.721Z,101886.63
2023-03-28T19:13:30.842Z,101881.28
2023-03-28T19:16:00.705Z,101893.69
2023-03-28T19:18:30.083Z,101897.72
2023-03-28T19:20:58.676Z,101897.34
2023-03-28T19:23:29.079Z,101902.47
2023-03-28T19:25:58.901Z,101908.03
2023-03-28T19:28:27.447Z,101910.44
2023-03-28T19:31:00.137Z,101912.84
2023-03-28T19:33:29.169Z,101915.47
2023-03-28T19:35:58.227Z,101898.50
2023-03-28T19:38:27.640Z,101920.66
2023-03-28T19:41:01.091Z,101928.53
2023-03-28T19:43:29.627Z,101926.03
2023-03-28T19:46:02.814Z,101926.78
2023-03-28T19:48:31.707Z,101931.03
2023-03-28T19:51:00.160Z,101940.88
2023-03-28T19:53:28.782Z,101931.97
2023-03-28T19:55:59.095Z,101932.03
2023-03-28T19:58:29.826Z,101951.50
2023-03-28T20:00:58.477Z,101946.63
2023-03-28T20:03:28.056Z,101946.66
2023-03-28T20:05:56.461Z,101956.91
2023-03-28T20:08:24.841Z,101957.69
2023-03-28T20:10:53.883Z,101960.16
2023-03-28T20:13:23.440Z,101968.94
2023-03-28T20:15:53.344Z,101970.66
2023-03-28T20:18:22.756Z,101966.13
2023-03-28T20:20:52.130Z,101961.56
2023-03-28T20:23:22.762Z,101961.25
2023-03-28T20:25:52.300Z,101973.19
2023-03-28T20:28:21.539Z,101976.69
2023-03-28T20:30:50.029Z,101967.50
2023-03-28T20:33:20.857Z,101966.31
2023-03-28T20:35:53.398Z,101980.81
2023-03-28T20:38:23.046Z,101978.75
2023-03-28T20:40:51.510Z,101978.44
2023-03-28T20:43:21.222Z,101976.25
2023-03-28T20:45:53.815Z,101972.28
2023-03-28T20:48:35.051Z,101959.59
2023-03-28T20:51:04.153Z,101976.09
2023-03-28T20:53:33.305Z,101975.56
2023-03-28T20:56:03.615Z,101970.19
2023-03-28T20:58:33.392Z,101979.72
2023-03-28T21:01:04.239Z,101980.53
2023-03-28T21:03:46.872Z,101987.38
2023-03-28T21:06:16.441Z,101975.06
2023-03-28T21:08:47.291Z,101990.41
2023-03-28T21:11:16.519Z,101993.66
2023-03-28T21:13:45.141Z,101989.19
2023-03-28T21:16:16.028Z,101988.47
2023-03-28T21:18:46.920Z,101987.50
2023-03-28T21:21:18.020Z,101967.50
2023-03-28T21:23:47.194Z,101981.38
2023-03-28T21:26:18.014Z,101974.72
2023-03-28T21:28:47.699Z,101984.16
2023-03-28T21:31:20.963Z,101987.97
2023-03-28T21:33:50.948Z,101981.03
2023-03-28T21:36:21.070Z,101980.56
2023-03-28T21:38:49.829Z,101978.94
2023-03-28T21:41:18.358Z,101980.00
2023-03-28T21:43:47.770Z,101978.19
2023-03-28T21:46:18.657Z,101977.34
2023-03-28T21:48:48.146Z,101971.53
2023-03-28T21:51:18.918Z,101973.81
2023-03-28T21:53:48.297Z,101968.59
2023-03-28T21:56:16.938Z,101961.94
2023-03-28T21:58:45.620Z,101943.53
2023-03-28T22:01:18.133Z,101966.13
2023-03-28T22:03:47.412Z,101968.22
2023-03-28T22:06:18.526Z,101965.81
2023-03-28T22:08:52.376Z,101956.59
2023-03-28T22:11:27.763Z,101962.50
2023-03-28T22:14:01.575Z,101963.34
2023-03-28T22:16:35.136Z,101973.22
2023-03-28T22:19:03.530Z,101967.59
2023-03-28T22:21:33.501Z,101960.19
2023-03-28T22:24:04.513Z,101969.56
2023-03-28T22:26:32.924Z,101972.50
2023-03-28T22:29:01.322Z,101969.16
2023-03-28T22:31:29.905Z,101968.47
2023-03-28T22:33:58.250Z,101968.09
2023-03-28T22:36:27.221Z,101974.44
2023-03-28T22:38:57.113Z,101974.34
2023-03-28T22:41:25.706Z,101975.69
2023-03-28T22:43:54.371Z,101977.91
2023-03-28T22:46:22.988Z,101960.13
2023-03-28T22:48:54.457Z,101968.63
2023-03-28T22:51:25.367Z,101985.94
2023-03-28T22:53:54.225Z,101971.28
2023-03-28T22:56:25.571Z,101920.28
2023-03-28T22:58:54.063Z,101977.31
2023-03-28T23:01:26.220Z,101978.41
2023-03-28T23:03:54.718Z,101993.03
2023-03-28T23:06:23.498Z,101997.03
2023-03-28T23:08:52.192Z,102006.13
2023-03-28T23:11:20.577Z,101999.28
2023-03-28T23:13:50.401Z,101993.28
2023-03-28T23:16:18.872Z,101992.63
2023-03-28T23:18:50.190Z,101995.28
2023-03-28T23:21:18.985Z,101992.25
2023-03-28T23:23:47.711Z,101997.31
2023-03-28T23:26:16.868Z,101990.75
2023-03-28T23:28:45.224Z,101990.47
2023-03-28T23:31:15.229Z,101994.47
2023-03-28T23:33:44.769Z,101984.72
2023-03-28T23:36:14.195Z,101986.94
2023-03-28T23:38:43.024Z,101985.25
2023-03-28T23:41:11.368Z,101979.94
2023-03-28T23:43:40.110Z,101969.47
2023-03-28T23:46:09.143Z,101978.63
2023-03-28T23:48:39.188Z,101972.84
2023-03-28T23:51:09.216Z,101974.28
2023-03-28T23:53:37.634Z,101972.03
2023-03-28T23:56:07.093Z,101979.22
2023-03-28T23:58:36.252Z,101977.88
